F/V Adeline Stephen — FGUF — position and weather

sailwx.info

Track history (hours):
 
Tides and Currents Weather Stations Pressure Air Temp Water Temp Dewpoint Dewpoint Depression Visibility Wind Speed Wind Dir Waves Ship Positions

F/V Adeline Stephen

Last reported at 2016-May-24 13:24 UTC. Time now 2016-May-26 00:39 UTC.
Position N 47°43' W 003°22'.

Length 18 m.

Type: Fishing. MMSI: 228929000.

Date/timePositionNaut miles runAvg speedWind from/ knotsBaromVisibWave heightAir tempDewpointWater temp
2016-May-24 13:24N 47°43' W 003°22'6 7.7
2016-May-24 12:33N 47°40' W 003°30'  
2016-May-21 18:03N 47°36' W 003°45'4 8.0
2016-May-21 17:33N 47°37' W 003°39'8 8.4
2016-May-21 16:33N 47°40' W 003°28'5 5.2
2016-May-21 15:33N 47°44' W 003°22'0 0.2
2016-May-21 14:33N 47°44' W 003°22'0 0.0
2016-May-21 13:33N 47°44' W 003°22'3 3.1
2016-May-21 12:33N 47°41' W 003°24'9 9.3
2016-May-21 11:33N 47°39' W 003°38'40 4.0
2016-May-21 01:33N 47°31' W 004°35'6 2.9
2016-May-20 23:18N 47°36' W 004°41'6 2.8
2016-May-20 21:09N 47°36' W 004°50'  
2016-May-17 20:34N 47°40' W 003°37'9 8.5
2016-May-17 19:34N 47°41' W 003°24'3 2.9
2016-May-17 18:34N 47°44' W 003°22'0 0.2
2016-May-17 17:33N 47°44' W 003°22'0 0.0
2016-May-17 16:33N 47°44' W 003°22'0 0.0
2016-May-17 15:33N 47°44' W 003°22'6 5.8
2016-May-17 14:34N 47°40' W 003°29'  
Track history (hours):
 
Tides and Currents Weather Stations Pressure Air Temp Water Temp Dewpoint Dewpoint Depression Visibility Wind Speed Wind Dir Waves Ship Positions

F/V Adeline Stephen

Last reported at 2016-May-24 13:24 UTC. Time now 2016-May-26 00:39 UTC.
Position N 47°43' W 003°22'.

Length 18 m.

Type: Fishing. MMSI: 228929000.

Date/timePositionNaut miles runAvg speedWind from/ knotsBaromVisibWave heightAir tempDewpointWater temp
2016-May-24 13:24N 47°43' W 003°22'6 7.7
2016-May-24 12:33N 47°40' W 003°30'  
2016-May-21 18:03N 47°36' W 003°45'4 8.0
2016-May-21 17:33N 47°37' W 003°39'8 8.4
2016-May-21 16:33N 47°40' W 003°28'5 5.2
2016-May-21 15:33N 47°44' W 003°22'0 0.2
2016-May-21 14:33N 47°44' W 003°22'0 0.0
2016-May-21 13:33N 47°44' W 003°22'3 3.1
2016-May-21 12:33N 47°41' W 003°24'9 9.3
2016-May-21 11:33N 47°39' W 003°38'40 4.0
2016-May-21 01:33N 47°31' W 004°35'6 2.9
2016-May-20 23:18N 47°36' W 004°41'6 2.8
2016-May-20 21:09N 47°36' W 004°50'  
2016-May-17 20:34N 47°40' W 003°37'9 8.5
2016-May-17 19:34N 47°41' W 003°24'3 2.9
2016-May-17 18:34N 47°44' W 003°22'0 0.2
2016-May-17 17:33N 47°44' W 003°22'0 0.0
2016-May-17 16:33N 47°44' W 003°22'0 0.0
2016-May-17 15:33N 47°44' W 003°22'6 5.8
2016-May-17 14:34N 47°40' W 003°29'  

Dump ship's entire track history